Aeroporto :
LOGIN :

Iscrizione | Disclaimer

   EN    FR    IT 

 










Sommario :    VFR   VFR Marginale   IFR   IFR Intensivo   IFR Molto Intensivo
Visibilità : 
Base nubi : 
>= 8 km
>= 3000ft
5 / 8 km
1000 / 3000 ft
1500m / 5 km
500 / 1000 ft
800 / 1500m
200 / 500 ft
< 800m
< 200 ft
Simboli :   Temporali  Nebbia  Neve Forte  Precipitazioni Forti  Vento > 20 kt
SIGMETs :   Varie  Temporali  Ghiacco  Turbolenza  Onda orograficha  Ceneri Vulcaniche






- Altitudine del aeroporto : 59 ft
- Codice IATA : TSF


LIPH - Treviso

ULTIMO METAR :
  • 250620Z 21002KT 3000 BR FEW015 BKN040 09/08 Q1012

METARs OBSOLETI :
  • 250550Z AUTO 21002KT 2700 BR OVC045/// 09/08 Q1012
  • 250520Z AUTO 23003KT 3800 BR FEW010/// BKN045/// 09/08 Q1013
  • 250450Z AUTO 25001KT 4800 BR OVC046/// 09/08 Q1013
  • 250420Z AUTO 26001KT 4500 BR OVC046/// 09/08 Q1013
  • 250350Z AUTO 24001KT 4200 BR SCT036/// OVC044/// 09/08 Q1013
  • 250320Z AUTO VRB01KT 4500 BR OVC043/// 09/08 Q1013

TAF TAF LIPH
Valido dal 25 a 06 ore il 26 a 06 ore UTC


250500Z 2506/2606 VRB05KT 3500 BR BKN040
TEMPO 2506/2508 0800 FG BKN005
BECMG 2510/2512 6000
BECMG 2520/2522 2500 BR
TEMPO 2522/2606 0600 FG BKN005



MetMap, La meteo Aeronautica in un colpo d'occhio ! - Copyright ORBIFLY Dicembre 2007 - Disclaimer

ORBIFLY MET'MAP TEAM :

Programmazione e sviluppo : Alexandra Zaïnal
Concezione : Baudouin d'Aumeries
Aiuto per la programmazione : Marc-Olivier Méhu
Supporto tecnico e logistico : Manuel Goepfert
Aiuto per la traduzione : Arnaldo La Scala

Contatto : metmap@orbifly.com




FONTI E CREDITI :

   NOAA